Terminal Aerodrome Forecast
Issued by NWS

Home | Current Version | Previous Version | Graphics & Text | Print | Product List | Glossary On
Versions: 1 2 3 4 5 6 7 8 9 10 11 12 13 14 15 16 17 18 19 20 21 22
000
FTUS43 KABR 292153 AAA
TAFATY
TAF AMD
KATY 292153Z 2922/3018 31013KT 1 1/2SM BR BKN007 OVC011
     FM292300 32015G22KT 2SM -SN BR OVC003
     FM300100 31019G28KT 3SM -SN BLSN OVC003
     FM300300 31019G28KT 3SM BLSN OVC003
     FM300500 32018G26KT 2SM -SN BR BLSN OVC003
     FM300600 32017G25KT 2SM -SN OVC003
     FM301200 32015G23KT P6SM OVC003
     FM301500 32013G20KT P6SM OVC008=

USA.gov is the U.S. government's official web portal to all federal, state and local government web resources and services.